createdAt,value
2017-08-14T00:00:12.487Z,16.01
2017-08-14T00:01:12.505Z,15.96
2017-08-14T00:02:12.530Z,16
2017-08-14T00:03:12.560Z,16
2017-08-14T00:04:12.576Z,15.9
2017-08-14T00:06:12.615Z,15.87
2017-08-14T00:07:27.244Z,15.86
2017-08-14T00:08:12.677Z,15.74
2017-08-14T00:09:12.709Z,15.8
2017-08-14T00:10:12.731Z,15.83
2017-08-14T00:11:12.744Z,15.89
2017-08-14T00:12:27.370Z,15.71
2017-08-14T00:13:12.786Z,15.8
2017-08-14T00:14:12.830Z,15.78
2017-08-14T00:15:12.827Z,15.68
2017-08-14T00:16:12.866Z,15.69
2017-08-14T00:17:12.898Z,15.75
2017-08-14T00:18:12.900Z,15.72
2017-08-14T00:19:12.920Z,15.65
2017-08-14T00:20:12.944Z,15.75
2017-08-14T00:21:12.992Z,15.67
2017-08-14T00:22:12.994Z,15.75
2017-08-14T00:23:13.028Z,15.64
2017-08-14T00:25:13.078Z,15.69
2017-08-14T00:26:13.105Z,15.74
2017-08-14T00:27:27.721Z,15.74
2017-08-14T00:28:13.136Z,15.83
2017-08-14T00:29:13.184Z,15.84
2017-08-14T00:30:13.196Z,15.78
2017-08-14T00:31:13.217Z,15.9
2017-08-14T00:32:13.231Z,15.72
2017-08-14T00:33:13.283Z,15.8
2017-08-14T00:34:27.893Z,15.71
2017-08-14T00:35:13.295Z,15.71
2017-08-14T00:36:13.329Z,15.69
2017-08-14T00:38:13.386Z,15.72
2017-08-14T00:39:28.003Z,15.67
2017-08-14T00:40:13.435Z,15.68
2017-08-14T00:41:13.451Z,15.72
2017-08-14T00:42:13.487Z,15.74
2017-08-14T00:43:13.482Z,15.67
2017-08-14T00:44:13.515Z,15.71
2017-08-14T00:45:13.554Z,15.72
2017-08-14T00:46:13.563Z,15.6
2017-08-14T00:47:13.291Z,15.67
2017-08-14T00:48:13.598Z,15.67
2017-08-14T00:49:13.647Z,15.56
2017-08-14T00:50:13.649Z,15.62
2017-08-14T00:51:13.693Z,15.62
2017-08-14T00:52:13.724Z,15.54
2017-08-14T00:53:13.434Z,15.59
2017-08-14T00:54:13.456Z,15.49
2017-08-14T00:55:13.789Z,15.57
2017-08-14T00:56:13.805Z,15.64
2017-08-14T00:57:13.846Z,15.53
2017-08-14T00:58:13.841Z,15.54
2017-08-14T00:59:28.475Z,15.47
2017-08-14T01:00:13.891Z,15.53
2017-08-14T01:01:13.919Z,15.54
2017-08-14T01:02:13.952Z,15.57
2017-08-14T01:03:13.671Z,15.71
2017-08-14T01:04:13.998Z,15.72
2017-08-14T01:05:14.011Z,15.6
2017-08-14T01:06:14.031Z,15.62
2017-08-14T01:07:14.065Z,15.65
2017-08-14T01:10:14.146Z,15.51
2017-08-14T01:11:14.165Z,15.54
2017-08-14T01:12:13.879Z,15.56
2017-08-14T01:13:14.208Z,15.54
2017-08-14T01:14:14.230Z,15.57
2017-08-14T01:15:28.845Z,15.6
2017-08-14T01:16:14.279Z,15.6
2017-08-14T01:17:13.995Z,15.6
2017-08-14T01:18:14.319Z,15.62
2017-08-14T01:19:28.951Z,15.6
2017-08-14T01:20:14.365Z,15.51
2017-08-14T01:21:14.400Z,15.54
2017-08-14T01:22:14.422Z,15.51
2017-08-14T01:23:14.446Z,15.5
2017-08-14T01:24:14.502Z,15.51
2017-08-14T01:25:14.482Z,15.53
2017-08-14T01:26:29.112Z,15.56
2017-08-14T01:27:14.228Z,15.51
2017-08-14T01:28:14.562Z,15.49
2017-08-14T01:29:14.580Z,15.49
2017-08-14T01:30:14.606Z,15.53
2017-08-14T01:31:29.216Z,15.44
2017-08-14T01:32:14.659Z,15.5
2017-08-14T01:33:14.678Z,15.49
2017-08-14T01:34:14.390Z,15.46
2017-08-14T01:35:14.742Z,15.5
2017-08-14T01:36:29.336Z,15.47
2017-08-14T01:37:14.785Z,15.41
2017-08-14T01:38:29.397Z,15.41
2017-08-14T01:39:29.422Z,15.46
2017-08-14T01:40:14.850Z,15.44
2017-08-14T01:41:29.463Z,15.44
2017-08-14T01:42:14.896Z,15.49
2017-08-14T01:43:14.904Z,15.36
2017-08-14T01:44:14.943Z,15.36
2017-08-14T01:45:14.645Z,15.29
2017-08-14T01:46:14.990Z,15.29
2017-08-14T01:47:29.606Z,15.21
2017-08-14T01:48:15.039Z,15.2
2017-08-14T01:49:15.058Z,15.27
2017-08-14T01:50:29.682Z,15.23
2017-08-14T01:51:15.101Z,15.21
2017-08-14T01:52:15.135Z,15.2
2017-08-14T01:53:15.152Z,15.17
2017-08-14T01:54:15.174Z,15.19
2017-08-14T01:55:15.188Z,15.25
2017-08-14T01:56:15.206Z,15.28
2017-08-14T01:57:15.248Z,15.2
2017-08-14T01:59:15.299Z,15.25
2017-08-14T02:00:14.689Z,15.29
2017-08-14T02:01:15.327Z,15.2
2017-08-14T02:02:29.967Z,15.28
2017-08-14T02:04:15.400Z,15.27
2017-08-14T02:05:15.430Z,15.23
2017-08-14T02:06:15.442Z,15.25
2017-08-14T02:07:15.481Z,15.31
2017-08-14T02:08:15.489Z,15.27
2017-08-14T02:09:15.223Z,15.29
2017-08-14T02:10:15.562Z,15.29
2017-08-14T02:11:15.564Z,15.29
2017-08-14T02:12:30.191Z,15.28
2017-08-14T02:13:15.618Z,15.28
2017-08-14T02:14:15.623Z,15.27
2017-08-14T02:15:15.666Z,15.31
2017-08-14T02:16:15.686Z,15.39
2017-08-14T02:17:15.965Z,15.44
2017-08-14T02:18:15.416Z,15.38
2017-08-14T02:19:15.772Z,15.43
2017-08-14T02:20:15.790Z,15.49
2017-08-14T02:22:15.826Z,15.46
2017-08-14T02:23:15.842Z,15.53
2017-08-14T02:24:15.883Z,15.54
2017-08-14T02:25:15.577Z,15.59
2017-08-14T02:26:15.926Z,15.59
2017-08-14T02:27:15.953Z,15.6
2017-08-14T02:28:30.565Z,15.68
2017-08-14T02:29:15.981Z,15.71
2017-08-14T02:30:16.012Z,15.69
2017-08-14T02:31:15.726Z,15.78
2017-08-14T02:32:16.048Z,15.72
2017-08-14T02:33:16.085Z,15.78
2017-08-14T02:34:30.706Z,15.82
2017-08-14T02:35:16.129Z,15.86
2017-08-14T02:36:16.149Z,15.9
2017-08-14T02:37:16.166Z,15.87
2017-08-14T02:38:16.195Z,15.86
2017-08-14T02:39:15.926Z,15.84
2017-08-14T02:40:16.237Z,15.84
2017-08-14T02:41:15.961Z,15.97
2017-08-14T02:42:16.292Z,15.96
2017-08-14T02:43:16.334Z,15.96
2017-08-14T02:44:16.343Z,16.04
2017-08-14T02:45:30.656Z,15.97
2017-08-14T02:46:16.380Z,15.97
2017-08-14T02:47:16.402Z,15.97
2017-08-14T02:48:16.419Z,16.01
2017-08-14T02:49:16.469Z,16.05
2017-08-14T02:50:31.078Z,15.97
2017-08-14T02:51:16.190Z,16.02
2017-08-14T02:52:16.550Z,16.09
2017-08-14T02:53:16.542Z,16.05
2017-08-14T02:54:16.574Z,16.14
2017-08-14T02:55:31.180Z,16.04
2017-08-14T02:56:16.313Z,16.05
2017-08-14T02:57:31.245Z,16.08
2017-08-14T02:58:16.343Z,16.08
2017-08-14T02:59:16.678Z,16.08
2017-08-14T03:00:31.311Z,16.12
2017-08-14T03:01:16.749Z,16.11
2017-08-14T03:02:16.768Z,16.12
2017-08-14T03:03:16.787Z,16.08
2017-08-14T03:04:16.812Z,16.08
2017-08-14T03:05:16.836Z,16.12
2017-08-14T03:06:31.451Z,16.04
2017-08-14T03:07:31.470Z,16.11
2017-08-14T03:08:16.913Z,16.08
2017-08-14T03:09:16.931Z,16.11
2017-08-14T03:10:16.929Z,16.11
2017-08-14T03:11:16.658Z,16.09
2017-08-14T03:12:17.003Z,16.07
2017-08-14T03:13:17.028Z,16.07
2017-08-14T03:14:16.732Z,16.11
2017-08-14T03:15:17.073Z,16.11
2017-08-14T03:16:16.788Z,16.12
2017-08-14T03:17:17.107Z,16.05
2017-08-14T03:19:17.168Z,16.11
2017-08-14T03:20:17.183Z,16.05
2017-08-14T03:21:17.210Z,16.02
2017-08-14T03:22:31.816Z,16.09
2017-08-14T03:23:17.265Z,16.14
2017-08-14T03:24:17.273Z,16.04
2017-08-14T03:25:17.284Z,16.05
2017-08-14T03:26:17.328Z,16.07
2017-08-14T03:27:17.350Z,16.04
2017-08-14T03:28:17.372Z,15.97
2017-08-14T03:29:17.381Z,16.08
2017-08-14T03:30:17.422Z,16.04
2017-08-14T03:31:16.814Z,16.01
2017-08-14T03:32:17.452Z,15.97
2017-08-14T03:33:17.481Z,15.97
2017-08-14T03:34:17.208Z,15.96
2017-08-14T03:35:17.528Z,15.97
2017-08-14T03:36:17.555Z,15.97
2017-08-14T03:37:32.173Z,16.01
2017-08-14T03:38:32.207Z,16.01
2017-08-14T03:39:17.639Z,15.92
2017-08-14T03:41:17.678Z,15.92
2017-08-14T03:42:17.696Z,15.94
2017-08-14T03:43:17.713Z,15.92
2017-08-14T03:44:17.745Z,15.83
2017-08-14T03:45:17.776Z,15.89
2017-08-14T03:46:17.840Z,15.74
2017-08-14T03:47:17.806Z,15.74
2017-08-14T03:48:17.522Z,15.68
2017-08-14T03:49:17.874Z,15.71
2017-08-14T03:50:17.891Z,15.64
2017-08-14T03:52:17.945Z,15.53
2017-08-14T03:53:17.955Z,15.53
2017-08-14T03:54:17.966Z,15.53
2017-08-14T03:55:18.007Z,15.51
2017-08-14T03:56:18.017Z,15.5
2017-08-14T03:57:18.049Z,15.46
2017-08-14T03:58:18.074Z,15.44
2017-08-14T03:59:18.077Z,15.41
2017-08-14T04:00:18.120Z,15.46
2017-08-14T04:01:18.135Z,15.41
2017-08-14T04:02:18.165Z,15.44
2017-08-14T04:03:32.786Z,15.39
2017-08-14T04:04:18.211Z,15.5
2017-08-14T04:05:18.230Z,15.46
2017-08-14T04:06:18.263Z,15.6
2017-08-14T04:07:17.980Z,15.59
2017-08-14T04:08:32.590Z,15.6
2017-08-14T04:09:32.921Z,15.57
2017-08-14T04:11:18.384Z,15.68
2017-08-14T04:12:18.380Z,15.67
2017-08-14T04:13:18.429Z,15.74
2017-08-14T04:14:18.432Z,15.74
2017-08-14T04:15:18.152Z,15.69
2017-08-14T04:16:18.478Z,15.74
2017-08-14T04:17:18.517Z,15.82
2017-08-14T04:18:18.525Z,15.84
2017-08-14T04:19:18.573Z,15.82
2017-08-14T04:20:18.588Z,15.76
2017-08-14T04:21:18.612Z,15.78
2017-08-14T04:22:18.619Z,15.78
2017-08-14T04:23:18.654Z,15.72
2017-08-14T04:24:18.667Z,15.86
2017-08-14T04:25:33.298Z,15.8
2017-08-14T04:26:18.775Z,15.72
2017-08-14T04:27:18.743Z,15.82
2017-08-14T04:28:18.779Z,15.82
2017-08-14T04:29:18.786Z,15.87
2017-08-14T04:30:18.509Z,15.74
2017-08-14T04:31:18.869Z,15.83
2017-08-14T04:32:18.843Z,15.83
2017-08-14T04:33:18.885Z,15.9
2017-08-14T04:34:18.595Z,15.82
2017-08-14T04:35:18.967Z,15.93
2017-08-14T04:36:18.962Z,15.83
2017-08-14T04:37:18.973Z,15.86
2017-08-14T04:38:19.007Z,15.93
2017-08-14T04:39:19.008Z,16.07
2017-08-14T04:40:19.055Z,16.11
2017-08-14T04:41:33.695Z,16.23
2017-08-14T04:42:19.095Z,16.15
2017-08-14T04:43:33.728Z,16.2
2017-08-14T04:44:19.139Z,16.25
2017-08-14T04:45:19.170Z,16.27
2017-08-14T04:47:19.216Z,16.5
2017-08-14T04:48:18.936Z,16.53
2017-08-14T04:49:19.257Z,16.57
2017-08-14T04:50:19.302Z,16.57
2017-08-14T04:51:18.993Z,16.64
2017-08-14T04:52:33.627Z,16.66
2017-08-14T04:53:19.041Z,16.71
2017-08-14T04:54:19.378Z,16.91
2017-08-14T04:56:33.718Z,17.38
2017-08-14T04:57:34.049Z,17.41
2017-08-14T04:58:34.068Z,17.3
2017-08-14T04:59:19.508Z,17.28
2017-08-14T05:00:19.532Z,17.33
2017-08-14T05:02:19.567Z,18.23
2017-08-14T05:03:19.604Z,18.7
2017-08-14T05:04:19.628Z,19.19
2017-08-14T05:05:19.676Z,19.73
2017-08-14T05:06:19.665Z,20.26
2017-08-14T05:07:19.700Z,20.2
2017-08-14T05:08:19.718Z,20.21
2017-08-14T05:09:19.762Z,20.24
2017-08-14T05:10:19.765Z,20.41
2017-08-14T05:11:19.495Z,20.66
2017-08-14T05:12:34.433Z,20.85
2017-08-14T05:13:19.859Z,21.07
2017-08-14T05:14:19.885Z,21.17
2017-08-14T05:15:19.905Z,21.13
2017-08-14T05:16:19.946Z,21.12
2017-08-14T05:17:19.649Z,21.37
2017-08-14T05:18:19.994Z,21.61
2017-08-14T05:19:19.998Z,21.68
2017-08-14T05:20:20.049Z,21.92
2017-08-14T05:21:20.082Z,22.31
2017-08-14T05:22:34.699Z,22.57
2017-08-14T05:23:34.727Z,23.01
2017-08-14T05:24:20.154Z,23.48
2017-08-14T05:25:20.188Z,24.09
2017-08-14T05:26:20.211Z,24.42
2017-08-14T05:27:20.235Z,24.71
2017-08-14T05:28:34.862Z,25.27
2017-08-14T05:29:20.293Z,25.43
2017-08-14T05:30:20.345Z,25.88
2017-08-14T05:31:20.364Z,25.98
2017-08-14T05:32:20.383Z,26.01
2017-08-14T05:33:20.427Z,26.15
2017-08-14T05:34:20.443Z,26.01
2017-08-14T05:35:20.491Z,26.43
2017-08-14T05:36:20.513Z,26.67
2017-08-14T05:37:20.551Z,26.73
2017-08-14T05:38:20.574Z,26.94
2017-08-14T05:39:20.609Z,26.92
2017-08-14T05:40:20.650Z,27.03
2017-08-14T05:41:20.680Z,27.32
2017-08-14T05:42:20.703Z,27.44
2017-08-14T05:43:20.718Z,27.65
2017-08-14T05:44:35.361Z,27.34
2017-08-14T05:45:20.812Z,27.41
2017-08-14T05:46:20.832Z,27.67
2017-08-14T05:47:20.571Z,27.49
2017-08-14T05:48:20.897Z,27.43
2017-08-14T05:49:20.947Z,27.75
2017-08-14T05:50:20.958Z,27.82
2017-08-14T05:51:35.602Z,27.7
2017-08-14T05:52:21.039Z,27.81
2017-08-14T05:53:21.068Z,28.24
2017-08-14T05:55:21.138Z,28.4
2017-08-14T05:56:21.162Z,28.68
2017-08-14T05:57:21.209Z,28.24
2017-08-14T05:58:21.234Z,27.79
2017-08-14T05:59:21.261Z,28.27
2017-08-14T06:00:35.909Z,28.33
2017-08-14T06:01:21.317Z,28.46
2017-08-14T06:02:21.063Z,28.55
2017-08-14T06:03:21.414Z,28.77
2017-08-14T06:04:21.446Z,28.71
2017-08-14T06:05:21.471Z,28.15
2017-08-14T06:06:21.514Z,28.54
2017-08-14T06:07:21.548Z,28.86
2017-08-14T06:08:21.586Z,28.98
2017-08-14T06:09:21.611Z,28.66
2017-08-14T06:10:21.699Z,28.85
2017-08-14T06:11:21.688Z,28.85
2017-08-14T06:12:21.723Z,29.18
2017-08-14T06:13:21.760Z,29.21
2017-08-14T06:14:21.786Z,29.52
2017-08-14T06:15:21.828Z,29.34
2017-08-14T06:16:36.143Z,28.62
2017-08-14T06:18:21.911Z,28.31
2017-08-14T06:19:21.966Z,28.67
2017-08-14T06:21:22.046Z,28.73
2017-08-14T06:22:22.065Z,29.18
2017-08-14T06:23:22.110Z,28.83
2017-08-14T06:24:22.134Z,29.3
2017-08-14T06:25:22.181Z,29.27
2017-08-14T06:26:22.214Z,29.33
2017-08-14T06:27:22.255Z,29.51
2017-08-14T06:28:22.289Z,29.76
2017-08-14T06:29:22.321Z,29.39
2017-08-14T06:30:22.359Z,28.78
2017-08-14T06:31:22.127Z,28.73
2017-08-14T06:33:22.467Z,29.15
2017-08-14T06:34:22.510Z,29.53
2017-08-14T06:35:22.552Z,29.48
2017-08-14T06:36:37.182Z,29
2017-08-14T06:37:22.621Z,29.27
2017-08-14T06:38:22.641Z,29.53
2017-08-14T06:39:22.678Z,29.42
2017-08-14T06:40:22.723Z,29.6
2017-08-14T06:41:22.776Z,29.74
2017-08-14T06:43:22.827Z,30.13
2017-08-14T06:44:22.871Z,30.17
2017-08-14T06:45:22.907Z,29.89
2017-08-14T06:46:22.634Z,30.34
2017-08-14T06:47:37.584Z,30.53
2017-08-14T06:49:23.046Z,29.82
2017-08-14T06:50:23.096Z,30.07
2017-08-14T06:51:23.151Z,30.15
2017-08-14T06:52:23.163Z,29.85
2017-08-14T06:53:22.892Z,29.95
2017-08-14T06:54:22.932Z,30.04
2017-08-14T06:55:22.962Z,30.01
2017-08-14T06:56:23.318Z,30.35
2017-08-14T06:57:23.027Z,30.29
2017-08-14T06:58:23.384Z,30.11
2017-08-14T06:59:23.423Z,30.34
2017-08-14T07:00:23.466Z,30.62
2017-08-14T07:02:23.535Z,30.88
2017-08-14T07:03:37.865Z,31.01
2017-08-14T07:04:23.612Z,30.86
2017-08-14T07:05:23.663Z,31.07
2017-08-14T07:06:23.716Z,31.29
2017-08-14T07:07:23.726Z,31.29
2017-08-14T07:08:23.757Z,31.43
2017-08-14T07:09:23.790Z,31.31
2017-08-14T07:10:23.827Z,31.29
2017-08-14T07:11:23.573Z,31.53
2017-08-14T07:12:23.904Z,31.58
2017-08-14T07:13:23.981Z,31.44
2017-08-14T07:14:38.585Z,31.28
2017-08-14T07:15:24.031Z,31.13
2017-08-14T07:16:24.053Z,31.39
2017-08-14T07:17:24.097Z,31.25
2017-08-14T07:18:38.731Z,31.19
2017-08-14T07:19:38.786Z,31.31
2017-08-14T07:20:24.223Z,31.39
2017-08-14T07:21:24.245Z,31.14
2017-08-14T07:22:24.291Z,30.82
2017-08-14T07:23:24.309Z,30.89
2017-08-14T07:24:24.376Z,31.43
2017-08-14T07:25:24.404Z,31.57
2017-08-14T07:26:24.121Z,31.76
2017-08-14T07:27:24.481Z,31.81
2017-08-14T07:28:24.498Z,31.78
2017-08-14T07:29:24.228Z,31.66
2017-08-14T07:30:24.585Z,32.11
2017-08-14T07:31:24.620Z,31.92
2017-08-14T07:32:24.362Z,31.76
2017-08-14T07:34:24.748Z,31.8
2017-08-14T07:36:24.515Z,31.75
2017-08-14T07:37:24.847Z,31.57
2017-08-14T07:39:24.929Z,31.65
2017-08-14T07:40:24.664Z,31.01
2017-08-14T07:41:24.992Z,31.02
2017-08-14T07:42:25.044Z,31.12
2017-08-14T07:43:25.076Z,31.56
2017-08-14T07:44:25.119Z,31.62
2017-08-14T07:45:39.769Z,31.76
2017-08-14T07:46:25.174Z,31.53
2017-08-14T07:47:24.926Z,31.48
2017-08-14T07:48:25.262Z,31.16
2017-08-14T07:49:25.317Z,31.02
2017-08-14T07:51:39.968Z,31.44
2017-08-14T07:52:25.423Z,31.61
2017-08-14T07:53:25.439Z,31.92
2017-08-14T07:54:25.497Z,32.23
2017-08-14T07:56:25.256Z,32.11
2017-08-14T07:57:25.606Z,31.5
2017-08-14T07:58:25.627Z,31.51
2017-08-14T07:59:25.682Z,31.25
2017-08-14T08:00:25.392Z,31.46
2017-08-14T08:02:25.494Z,31.7
2017-08-14T08:04:25.554Z,31.16
2017-08-14T08:05:25.590Z,30.91
2017-08-14T08:06:25.624Z,30.84
2017-08-14T08:07:40.572Z,30.7
2017-08-14T08:09:25.748Z,30.6
2017-08-14T08:10:25.769Z,29.31
2017-08-14T08:11:26.126Z,29.23
2017-08-14T08:12:25.845Z,29.48
2017-08-14T08:13:40.799Z,29
2017-08-14T08:14:26.239Z,29.16
2017-08-14T08:15:26.265Z,29.61
2017-08-14T08:17:26.322Z,30.07
2017-08-14T08:18:26.373Z,30.31
2017-08-14T08:19:26.407Z,30.62
2017-08-14T08:20:26.458Z,31.44
2017-08-14T08:21:26.541Z,31.84
2017-08-14T08:22:41.121Z,31.76
2017-08-14T08:23:26.587Z,32.18
2017-08-14T08:24:26.275Z,32.28
2017-08-14T08:25:26.649Z,32.45
2017-08-14T08:26:26.347Z,32.77
2017-08-14T08:27:26.102Z,32.65
2017-08-14T08:28:26.447Z,32.07
2017-08-14T08:29:26.773Z,31.76
2017-08-14T08:30:26.805Z,31.76
2017-08-14T08:31:26.843Z,31.62
2017-08-14T08:32:26.895Z,31.32
2017-08-14T08:33:26.926Z,30.97
2017-08-14T08:34:26.648Z,30.75
2017-08-14T08:35:27.006Z,30.32
2017-08-14T08:36:27.033Z,29.89
2017-08-14T08:37:27.073Z,29.49
2017-08-14T08:38:26.804Z,29.46
2017-08-14T08:39:26.845Z,30.01
2017-08-14T08:40:27.174Z,29.16
2017-08-14T08:41:26.915Z,29.16
2017-08-14T08:42:26.987Z,29.36
2017-08-14T08:43:26.989Z,29.73
2017-08-14T08:44:27.324Z,30.11
2017-08-14T08:45:41.968Z,30.67
2017-08-14T08:46:27.397Z,30.82
2017-08-14T08:47:27.424Z,30.98
2017-08-14T08:48:27.481Z,31.48
2017-08-14T08:49:27.504Z,31.72
2017-08-14T08:50:27.236Z,32.1
2017-08-14T08:51:27.568Z,32.23
2017-08-14T08:52:27.616Z,32.28
2017-08-14T08:53:27.642Z,32.3
2017-08-14T08:54:42.275Z,32.43
2017-08-14T08:55:27.724Z,32.4
2017-08-14T08:56:27.754Z,32.44
2017-08-14T08:57:27.796Z,32.33
2017-08-14T08:58:27.518Z,32.13
2017-08-14T08:59:27.871Z,32.11
2017-08-14T09:00:27.907Z,32.14
2017-08-14T09:01:27.934Z,31.44
2017-08-14T09:02:27.669Z,30.47
2017-08-14T09:03:27.689Z,29.94
2017-08-14T09:04:28.038Z,30.04
2017-08-14T09:05:28.086Z,30.02
2017-08-14T09:06:28.121Z,29.7
2017-08-14T09:07:28.166Z,29.57
2017-08-14T09:08:28.197Z,29.23
2017-08-14T09:09:28.242Z,28.95
2017-08-14T09:10:42.548Z,29.48
2017-08-14T09:11:28.300Z,29.45
2017-08-14T09:12:28.013Z,29.16
2017-08-14T09:13:42.975Z,29.14
2017-08-14T09:15:28.126Z,29.6
2017-08-14T09:17:28.198Z,29.89
2017-08-14T09:18:28.231Z,29.87
2017-08-14T09:19:27.959Z,30.01
2017-08-14T09:20:27.979Z,29.9
2017-08-14T09:21:28.012Z,29.51
2017-08-14T09:22:28.367Z,29.09
2017-08-14T09:23:28.710Z,28.33
2017-08-14T09:24:28.755Z,28.81
2017-08-14T09:25:28.466Z,29.51
2017-08-14T09:26:43.425Z,29.98
2017-08-14T09:27:28.855Z,30.19
2017-08-14T09:28:28.869Z,30.53
2017-08-14T09:29:28.937Z,30.83
2017-08-14T09:30:28.948Z,30.89
2017-08-14T09:31:28.976Z,30.89
2017-08-14T09:32:29.026Z,31.25
2017-08-14T09:33:29.055Z,30.73
2017-08-14T09:34:29.122Z,30.31
2017-08-14T09:35:29.120Z,29.82
2017-08-14T09:36:29.156Z,29.8
2017-08-14T09:37:29.189Z,30.34
2017-08-14T09:38:28.909Z,30.45
2017-08-14T09:39:28.943Z,30.89
2017-08-14T09:40:28.990Z,31.34
2017-08-14T09:42:43.652Z,32.14
2017-08-14T09:43:29.082Z,32.32
2017-08-14T09:44:29.116Z,32.88
2017-08-14T09:45:29.462Z,33.04
2017-08-14T09:46:29.501Z,33.19
2017-08-14T09:47:29.533Z,33.06
2017-08-14T09:48:29.583Z,33.06
2017-08-14T09:50:29.626Z,31.89
2017-08-14T09:51:29.649Z,31.06
2017-08-14T09:52:29.391Z,30.67
2017-08-14T09:53:29.743Z,30.08
2017-08-14T09:54:29.776Z,30.19
2017-08-14T09:55:29.500Z,30.57
2017-08-14T09:56:44.432Z,30.79
2017-08-14T09:57:44.164Z,31.04
2017-08-14T09:58:44.512Z,31.68
2017-08-14T10:00:29.971Z,32.35
2017-08-14T10:01:30.005Z,32.51
2017-08-14T10:02:30.049Z,32.87
2017-08-14T10:03:30.058Z,32.84
2017-08-14T10:04:29.799Z,32.87
2017-08-14T10:07:30.210Z,32.82
2017-08-14T10:08:30.241Z,32.81
2017-08-14T10:09:30.263Z,32.79
2017-08-14T10:10:30.301Z,32
2017-08-14T10:11:30.344Z,31.54
2017-08-14T10:12:30.376Z,31.7
2017-08-14T10:13:30.408Z,31.56
2017-08-14T10:14:30.124Z,31.73
2017-08-14T10:15:30.157Z,31.34
2017-08-14T10:16:30.209Z,31.19
2017-08-14T10:17:30.529Z,31.57
2017-08-14T10:18:30.574Z,31.73
2017-08-14T10:19:30.300Z,31.48
2017-08-14T10:20:45.247Z,31.95
2017-08-14T10:21:30.655Z,32.04
2017-08-14T10:23:30.749Z,31.93
2017-08-14T10:24:30.762Z,31.76
2017-08-14T10:25:30.488Z,31.39
2017-08-14T10:26:30.537Z,31.35
2017-08-14T10:28:30.611Z,31.46
2017-08-14T10:29:45.543Z,30.82
2017-08-14T10:30:30.971Z,30.67
2017-08-14T10:31:30.706Z,30.77
2017-08-14T10:32:30.730Z,30.55
2017-08-14T10:33:30.772Z,30.42
2017-08-14T10:34:31.126Z,30.35
2017-08-14T10:35:31.153Z,30.02
2017-08-14T10:36:31.170Z,29.94
2017-08-14T10:37:31.216Z,29.78
2017-08-14T10:38:31.231Z,29.57
2017-08-14T10:39:31.281Z,29.27
2017-08-14T10:41:31.343Z,28.88
2017-08-14T10:42:31.392Z,29
2017-08-14T10:43:31.405Z,28.81
2017-08-14T10:44:31.444Z,28.89
2017-08-14T10:45:46.076Z,28.92
2017-08-14T10:46:46.118Z,28.49
2017-08-14T10:47:46.151Z,28.4
2017-08-14T10:48:31.253Z,28.24
2017-08-14T10:51:31.672Z,27.65
2017-08-14T10:52:31.405Z,27.37
2017-08-14T10:53:31.746Z,27.21
2017-08-14T10:54:31.458Z,26.69
2017-08-14T10:55:31.180Z,26.73
2017-08-14T10:57:31.567Z,26.84
2017-08-14T10:58:31.873Z,26.88
2017-08-14T10:59:31.626Z,27.19
2017-08-14T11:00:31.972Z,27.62
2017-08-14T11:01:46.596Z,27.94
2017-08-14T11:02:32.019Z,28.02
2017-08-14T11:03:31.741Z,28.15
2017-08-14T11:04:32.102Z,28.4
2017-08-14T11:06:32.151Z,28.81
2017-08-14T11:07:32.176Z,28.85
2017-08-14T11:08:32.223Z,29.05
2017-08-14T11:09:32.237Z,29.12
2017-08-14T11:10:32.260Z,29.16
2017-08-14T11:11:32.317Z,29.05
2017-08-14T11:12:32.330Z,28.81
2017-08-14T11:13:32.383Z,28.34
2017-08-14T11:14:32.399Z,28.22
2017-08-14T11:15:32.433Z,27.85
2017-08-14T11:16:32.149Z,27.55
2017-08-14T11:17:47.101Z,27.44
2017-08-14T11:18:32.545Z,27.51
2017-08-14T11:19:32.564Z,27.55
2017-08-14T11:20:32.575Z,27.65
2017-08-14T11:21:32.637Z,28
2017-08-14T11:22:32.333Z,28.31
2017-08-14T11:23:32.377Z,28.54
2017-08-14T11:24:32.404Z,28.73
2017-08-14T11:25:32.430Z,28.73
2017-08-14T11:26:47.370Z,28.66
2017-08-14T11:27:32.498Z,28.41
2017-08-14T11:29:32.878Z,27.43
2017-08-14T11:30:32.905Z,27.1
2017-08-14T11:31:32.910Z,27.14
2017-08-14T11:32:47.561Z,27.36
2017-08-14T11:33:32.673Z,27.09
2017-08-14T11:34:33.032Z,27.13
2017-08-14T11:35:33.044Z,27.04
2017-08-14T11:36:32.777Z,27.25
2017-08-14T11:37:32.808Z,27.6
2017-08-14T11:38:32.829Z,27.65
2017-08-14T11:39:33.164Z,27.66
2017-08-14T11:40:33.197Z,27.87
2017-08-14T11:43:33.291Z,28.14
2017-08-14T11:44:33.329Z,28.17
2017-08-14T11:45:33.338Z,27.9
2017-08-14T11:46:33.393Z,27.84
2017-08-14T11:48:33.437Z,27.43
2017-08-14T11:49:33.478Z,27.28
2017-08-14T11:51:33.547Z,27.28
2017-08-14T11:52:33.556Z,27.39
2017-08-14T11:53:33.598Z,27.43
2017-08-14T11:55:33.340Z,27.62
2017-08-14T11:56:33.357Z,27.7
2017-08-14T11:57:48.312Z,27.59
2017-08-14T11:58:33.768Z,27.75
2017-08-14T11:59:33.465Z,27.55
2017-08-14T12:00:33.809Z,27.63
2017-08-14T12:02:33.551Z,27.47
2017-08-14T12:03:33.590Z,27.6
2017-08-14T12:04:48.513Z,27.72
2017-08-14T12:07:34.015Z,27.18
2017-08-14T12:08:34.050Z,27.07
2017-08-14T12:09:33.755Z,27.04
2017-08-14T12:10:34.096Z,27.07
2017-08-14T12:11:48.733Z,26.97
2017-08-14T12:12:34.175Z,27.06
2017-08-14T12:13:34.185Z,27.14
2017-08-14T12:15:33.926Z,26.92
2017-08-14T12:17:33.990Z,27.34
2017-08-14T12:18:34.035Z,27.31
2017-08-14T12:19:34.367Z,27.31
2017-08-14T12:20:48.994Z,27.39
2017-08-14T12:21:33.800Z,27.43
2017-08-14T12:22:34.461Z,27.18
2017-08-14T12:23:34.169Z,27.18
2017-08-14T12:24:34.521Z,27.19
2017-08-14T12:25:34.240Z,27.34
2017-08-14T12:26:34.571Z,27.43
2017-08-14T12:27:34.295Z,27.4
2017-08-14T12:28:34.634Z,27.5
2017-08-14T12:29:34.670Z,27.39
2017-08-14T12:30:34.953Z,27.55
2017-08-14T12:31:34.741Z,27.43
2017-08-14T12:33:49.377Z,27.4
2017-08-14T12:34:34.818Z,27.28
2017-08-14T12:36:49.476Z,27.4
2017-08-14T12:37:34.582Z,27.39
2017-08-14T12:38:34.930Z,27.4
2017-08-14T12:39:34.956Z,27.43
2017-08-14T12:40:34.673Z,27.36
2017-08-14T12:41:34.395Z,27.36
2017-08-14T12:42:49.651Z,27.27
2017-08-14T12:43:34.755Z,27.27
2017-08-14T12:44:34.799Z,27.07
2017-08-14T12:45:35.127Z,26.95
2017-08-14T12:46:35.166Z,26.91
2017-08-14T12:47:35.198Z,27.09
2017-08-14T12:48:34.923Z,27.18
2017-08-14T12:50:35.285Z,27.25
2017-08-14T12:51:35.301Z,27.22
2017-08-14T12:52:49.631Z,27.34
2017-08-14T12:53:35.051Z,27.32
2017-08-14T12:54:35.453Z,27.41
2017-08-14T12:55:35.449Z,27.49
2017-08-14T12:56:35.469Z,27.57
2017-08-14T12:57:35.476Z,27.6
2017-08-14T12:58:50.120Z,27.37
2017-08-14T12:59:35.559Z,27.19
2017-08-14T13:00:35.582Z,27.19
2017-08-14T13:01:50.204Z,27.07
2017-08-14T13:02:35.618Z,27.1
2017-08-14T13:03:35.670Z,27.29
2017-08-14T13:04:35.685Z,27.29
2017-08-14T13:05:35.737Z,27.21
2017-08-14T13:06:35.744Z,27.31
2017-08-14T13:07:50.384Z,27.32
2017-08-14T13:08:35.816Z,27.43
2017-08-14T13:09:35.851Z,27.69
2017-08-14T13:10:35.866Z,27.65
2017-08-14T13:11:35.895Z,27.84
2017-08-14T13:12:35.928Z,27.74
2017-08-14T13:13:35.965Z,27.47
2017-08-14T13:14:35.999Z,27.31
2017-08-14T13:16:36.084Z,27.27
2017-08-14T13:17:50.676Z,27.13
2017-08-14T13:18:36.104Z,27.12
2017-08-14T13:19:35.823Z,27.06
2017-08-14T13:20:35.871Z,26.99
2017-08-14T13:21:36.187Z,27.02
2017-08-14T13:22:36.227Z,27.19
2017-08-14T13:23:36.244Z,27.25
2017-08-14T13:24:36.293Z,27.43
2017-08-14T13:25:36.307Z,27.41
2017-08-14T13:26:36.345Z,27.41
2017-08-14T13:27:36.356Z,27.22
2017-08-14T13:28:36.389Z,27.09
2017-08-14T13:30:36.144Z,27.1
2017-08-14T13:31:36.484Z,27.21
2017-08-14T13:32:36.501Z,27.09
2017-08-14T13:33:36.550Z,26.91
2017-08-14T13:34:36.579Z,26.69
2017-08-14T13:35:36.603Z,26.7
2017-08-14T13:36:51.226Z,26.66
2017-08-14T13:37:36.354Z,26.75
2017-08-14T13:38:36.670Z,26.94
2017-08-14T13:39:51.317Z,27.02
2017-08-14T13:40:36.735Z,27.03
2017-08-14T13:41:36.786Z,27.03
2017-08-14T13:42:36.799Z,27.06
2017-08-14T13:43:36.841Z,27.19
2017-08-14T13:44:36.878Z,27.31
2017-08-14T13:45:36.904Z,27.03
2017-08-14T13:46:36.924Z,27.06
2017-08-14T13:47:36.949Z,27.18
2017-08-14T13:48:51.579Z,27.21
2017-08-14T13:49:51.617Z,27.1
2017-08-14T13:51:37.067Z,26.94
2017-08-14T13:52:37.109Z,26.89
2017-08-14T13:53:37.129Z,26.77
2017-08-14T13:54:37.148Z,26.89
2017-08-14T13:55:51.470Z,26.88
2017-08-14T13:56:36.900Z,26.88
2017-08-14T13:57:37.247Z,26.84